createdAt,value
2018-07-21T00:00:47.037Z,99726.94
2018-07-21T00:05:50.645Z,99738.30
2018-07-21T00:10:54.813Z,99737.14
2018-07-21T00:15:58.333Z,99733.42
2018-07-21T00:21:01.845Z,99723.64
2018-07-21T00:26:05.464Z,99720.58
2018-07-21T00:31:09.983Z,99718.50
2018-07-21T00:36:14.197Z,99710.54
2018-07-21T00:41:17.701Z,99703.91
2018-07-21T00:46:21.506Z,99708.29
2018-07-21T00:51:25.117Z,99699.62
2018-07-21T00:56:31.620Z,99709.61
2018-07-21T01:01:37.697Z,99716.63
2018-07-21T01:06:43.059Z,99708.84
2018-07-21T01:11:47.432Z,99708.91
2018-07-21T01:16:50.965Z,99702.09
2018-07-21T01:21:55.333Z,99692.87
2018-07-21T01:27:00.331Z,99687.62
2018-07-21T01:32:04.594Z,99684.06
2018-07-21T01:37:09.698Z,99686.80
2018-07-21T01:42:15.294Z,99688.55
2018-07-21T01:47:18.798Z,99685.91
2018-07-21T01:52:23.699Z,99688.34
2018-07-21T01:57:27.441Z,99687.78
2018-07-21T02:02:31.069Z,99692.52
2018-07-21T02:07:37.009Z,99699.64
2018-07-21T02:12:42.303Z,99698.32
2018-07-21T02:17:47.432Z,99697.80
2018-07-21T02:22:51.444Z,99699.01
2018-07-21T02:27:55.316Z,99698.14
2018-07-21T02:33:01.435Z,99693.41
2018-07-21T02:38:04.999Z,99699.56
2018-07-21T02:43:08.814Z,99702.73
2018-07-21T02:48:12.344Z,99706.41
2018-07-21T02:53:16.023Z,99702.89
2018-07-21T02:58:20.090Z,99689.19
2018-07-21T03:03:24.677Z,99690.06
2018-07-21T03:08:28.640Z,99690.52
2018-07-21T03:13:34.026Z,99688.98
2018-07-21T03:18:37.633Z,99674.72
2018-07-21T03:23:41.126Z,99674.38
2018-07-21T03:28:44.557Z,99665.06
2018-07-21T03:33:48.062Z,99662.27
2018-07-21T03:38:51.890Z,99667.97
2018-07-21T03:43:55.709Z,99663.77
2018-07-21T03:48:59.545Z,99656.81
2018-07-21T03:54:03.098Z,99656.52
2018-07-21T03:59:06.626Z,99653.61
2018-07-21T04:04:10.369Z,99656.81
2018-07-21T04:09:13.896Z,99651.21
2018-07-21T04:14:17.539Z,99643.42
2018-07-21T04:19:21.353Z,99637.83
2018-07-21T04:24:24.945Z,99640.78
2018-07-21T04:29:28.493Z,99634.50
2018-07-21T04:34:32.192Z,99634.81
2018-07-21T04:39:35.670Z,99649.46
2018-07-21T04:44:39.653Z,99655.27
2018-07-21T04:49:43.205Z,99656.25
2018-07-21T04:54:46.677Z,99654.66
2018-07-21T04:59:50.165Z,99641.48
2018-07-21T05:04:55.221Z,99643.95
2018-07-21T05:09:58.875Z,99640.66
2018-07-21T05:15:02.414Z,99645.34
2018-07-21T05:20:06.827Z,99643.81
2018-07-21T05:25:10.301Z,99634.91
2018-07-21T05:30:15.093Z,99632.97
2018-07-21T05:35:18.881Z,99632.52
2018-07-21T05:40:37.137Z,99638.91
2018-07-21T05:45:40.770Z,99637.48
2018-07-21T05:50:44.350Z,99635.26
2018-07-21T05:55:48.016Z,99641.28
2018-07-21T06:00:51.552Z,99640.55
2018-07-21T06:05:55.045Z,99643.53
2018-07-21T06:10:58.908Z,99639.81
2018-07-21T06:16:02.905Z,99644.09
2018-07-21T06:21:06.722Z,99646.84
2018-07-21T06:26:10.541Z,99647.89
2018-07-21T06:31:14.101Z,99646.64
2018-07-21T06:36:17.585Z,99642.25
2018-07-21T06:41:21.288Z,99643.67
2018-07-21T06:46:25.126Z,99653.45
2018-07-21T06:51:28.690Z,99658.61
2018-07-21T06:56:32.153Z,99659.86
2018-07-21T07:01:35.881Z,99662.05
2018-07-21T07:06:39.380Z,99664.17
2018-07-21T07:11:42.915Z,99664.17
2018-07-21T07:16:46.478Z,99666.75
2018-07-21T07:21:50.130Z,99664.41
2018-07-21T07:26:53.757Z,99670.27
2018-07-21T07:31:57.348Z,99668.77
2018-07-21T07:37:00.884Z,99665.56
2018-07-21T07:42:04.339Z,99659.75
2018-07-21T07:47:08.117Z,99657.66
2018-07-21T07:52:11.589Z,99654.01
2018-07-21T07:57:15.132Z,99668.27
2018-07-21T08:02:18.889Z,99670.61
2018-07-21T08:07:23.192Z,99661.01
2018-07-21T08:12:26.693Z,99654.43
2018-07-21T08:17:30.229Z,99673.07
2018-07-21T08:22:33.697Z,99674.50
2018-07-21T08:27:37.202Z,99672.89
2018-07-21T08:32:41.791Z,99674.32
2018-07-21T08:37:45.304Z,99675.34
2018-07-21T08:42:48.729Z,99673.39
2018-07-21T08:47:52.451Z,99666.21
2018-07-21T08:52:55.900Z,99663.41
2018-07-21T08:57:59.566Z,99662.92
2018-07-21T09:03:03.305Z,99661.17
2018-07-21T09:08:06.799Z,99664.02
2018-07-21T09:13:10.415Z,99659.95
2018-07-21T09:18:13.810Z,99654.19
2018-07-21T09:23:17.298Z,99644.15
2018-07-21T09:28:20.869Z,99653.59
2018-07-21T09:33:24.395Z,99648.55
2018-07-21T09:38:27.907Z,99643.69
2018-07-21T09:43:31.381Z,99654.16
2018-07-21T09:48:35.142Z,99648.47
2018-07-21T09:53:38.757Z,99648.66
2018-07-21T09:58:42.228Z,99651.81
2018-07-21T10:03:46.093Z,99656.17
2018-07-21T10:08:49.793Z,99649.82
2018-07-21T10:13:53.830Z,99648.31
2018-07-21T10:18:57.604Z,99654.53
2018-07-21T10:24:05.298Z,99666.42
2018-07-21T10:29:12.318Z,99658.56
2018-07-21T10:34:16.002Z,99661.33
2018-07-21T10:39:19.560Z,99655.16
2018-07-21T10:44:23.290Z,99658.27
2018-07-21T10:49:26.835Z,99653.64
2018-07-21T10:54:30.467Z,99658.77
2018-07-21T10:59:33.984Z,99647.64
2018-07-21T11:04:37.349Z,99648.53
2018-07-21T11:09:41.025Z,99644.48
2018-07-21T11:14:45.001Z,99648.80
2018-07-21T11:19:48.654Z,99653.28
2018-07-21T11:24:52.375Z,99649.95
2018-07-21T11:29:55.922Z,99640.41
2018-07-21T11:34:59.693Z,99644.22
2018-07-21T11:40:03.427Z,99636.68
2018-07-21T11:45:07.942Z,99632.98
2018-07-21T11:50:11.458Z,99646.08
2018-07-21T11:55:15.086Z,99638.06
2018-07-21T12:00:18.591Z,99623.35
2018-07-21T12:05:22.324Z,99630.69
2018-07-21T12:10:25.887Z,99631.41
2018-07-21T12:15:29.402Z,99630.97
2018-07-21T12:20:33.258Z,99627.73
2018-07-21T12:25:37.118Z,99633.55
2018-07-21T12:30:40.658Z,99639.66
2018-07-21T12:35:44.276Z,99640.20
2018-07-21T12:40:47.741Z,99636.95
2018-07-21T12:45:51.273Z,99640.39
2018-07-21T12:50:54.973Z,99636.42
2018-07-21T12:55:58.509Z,99642.58
2018-07-21T13:01:02.338Z,99643.81
2018-07-21T13:06:05.922Z,99643.71
2018-07-21T13:11:09.696Z,99640.98
2018-07-21T13:16:13.329Z,99630.48
2018-07-21T13:21:16.829Z,99646.77
2018-07-21T13:26:21.486Z,99636.64
2018-07-21T13:31:25.357Z,99638.17
2018-07-21T13:36:28.973Z,99633.08
2018-07-21T13:41:32.538Z,99637.71
2018-07-21T13:46:36.059Z,99635.92
2018-07-21T13:51:39.502Z,99635.27
2018-07-21T13:56:43.333Z,99630.38
2018-07-21T14:01:47.092Z,99636.11
2018-07-21T14:06:50.593Z,99638.30
2018-07-21T14:11:54.184Z,99640.25
2018-07-21T14:16:57.999Z,99650.77
2018-07-21T14:22:01.849Z,99639.47
2018-07-21T14:27:05.686Z,99650.26
2018-07-21T14:32:09.321Z,99651.37
2018-07-21T14:37:12.910Z,99645.98
2018-07-21T14:42:16.652Z,99648.11
2018-07-21T14:47:20.166Z,99649.52
2018-07-21T14:52:23.833Z,99653.16
2018-07-21T14:57:27.384Z,99655.51
2018-07-21T15:02:31.359Z,99657.52
2018-07-21T15:07:34.916Z,99661.03
2018-07-21T15:12:38.828Z,99660.47
2018-07-21T15:17:42.555Z,99657.91
2018-07-21T15:22:46.183Z,99658.84
2018-07-21T15:27:49.896Z,99658.17
2018-07-21T15:32:53.496Z,99664.84
2018-07-21T15:37:57.151Z,99665.05
2018-07-21T15:43:00.730Z,99665.16
2018-07-21T15:48:04.341Z,99660.11
2018-07-21T15:53:07.932Z,99652.31
2018-07-21T15:58:11.435Z,99652.86
2018-07-21T16:03:15.560Z,99651.47
2018-07-21T16:08:19.561Z,99652.31
2018-07-21T16:13:23.018Z,99653.45
2018-07-21T16:18:26.623Z,99655.25
2018-07-21T16:23:30.226Z,99655.25
2018-07-21T16:28:33.733Z,99652.22
2018-07-21T16:33:37.417Z,99647.62
2018-07-21T16:38:41.179Z,99649.27
2018-07-21T16:43:44.814Z,99644.98
2018-07-21T16:48:49.477Z,99643.73
2018-07-21T16:53:53.329Z,99638.95
2018-07-21T16:58:57.149Z,99633.83
2018-07-21T17:04:00.642Z,99629.61
2018-07-21T17:09:05.965Z,99632.19
2018-07-21T17:14:10.299Z,99632.66
2018-07-21T17:19:14.231Z,99638.23
2018-07-21T17:24:17.710Z,99630.36
2018-07-21T17:29:21.677Z,99637.32
2018-07-21T17:34:25.952Z,99633.88
2018-07-21T17:39:29.824Z,99637.59
2018-07-21T17:44:33.721Z,99640.73
2018-07-21T17:49:37.353Z,99636.81
2018-07-21T17:54:41.234Z,99644.55
2018-07-21T17:59:44.843Z,99633.13
2018-07-21T18:04:48.909Z,99634.36
2018-07-21T18:09:52.557Z,99637.56
2018-07-21T18:14:56.563Z,99637.08
2018-07-21T18:20:00.091Z,99637.42
2018-07-21T18:25:03.565Z,99632.06
2018-07-21T18:30:07.201Z,99647.09
2018-07-21T18:35:10.870Z,99642.08
2018-07-21T18:40:16.416Z,99643.34
2018-07-21T18:45:20.390Z,99646.26
2018-07-21T18:50:24.265Z,99651.86
2018-07-21T18:55:27.870Z,99662.33
2018-07-21T19:00:31.402Z,99658.98
2018-07-21T19:05:35.195Z,99664.80
2018-07-21T19:10:38.891Z,99666.02
2018-07-21T19:15:47.714Z,99664.97
2018-07-21T19:20:56.821Z,99664.86
2018-07-21T19:26:05.723Z,99667.96
2018-07-21T19:31:09.224Z,99682.09
2018-07-21T19:36:12.759Z,99682.23
2018-07-21T19:41:21.534Z,99684.36
2018-07-21T19:46:25.054Z,99682.89
2018-07-21T19:51:28.686Z,99678.34
2018-07-21T19:56:32.150Z,99680.20
2018-07-21T20:01:35.665Z,99688.70
2018-07-21T20:06:39.230Z,99688.80
2018-07-21T20:11:43.039Z,99689.07
2018-07-21T20:16:46.539Z,99698.24
2018-07-21T20:21:50.145Z,99696.81
2018-07-21T20:26:53.750Z,99701.00
2018-07-21T20:31:57.443Z,99701.69
2018-07-21T20:37:01.090Z,99706.64
2018-07-21T20:42:04.670Z,99714.84
2018-07-21T20:47:08.573Z,99710.44
2018-07-21T20:52:12.192Z,99718.25
2018-07-21T20:57:15.907Z,99716.73
2018-07-21T21:02:19.823Z,99719.98
2018-07-21T21:07:23.327Z,99726.47
2018-07-21T21:12:26.956Z,99728.36
2018-07-21T21:17:30.644Z,99731.78
2018-07-21T21:22:34.304Z,99729.98
2018-07-21T21:27:37.769Z,99730.55
2018-07-21T21:32:41.489Z,99736.47
2018-07-21T21:37:45.076Z,99737.23
2018-07-21T21:42:48.830Z,99737.80
2018-07-21T21:47:52.998Z,99734.94
2018-07-21T21:52:57.035Z,99733.31
2018-07-21T21:58:00.722Z,99738.17
2018-07-21T22:03:04.469Z,99724.27
2018-07-21T22:08:08.027Z,99722.17
2018-07-21T22:13:11.779Z,99726.73
2018-07-21T22:18:15.363Z,99724.84
2018-07-21T22:23:19.050Z,99724.17
2018-07-21T22:28:23.210Z,99730.55
2018-07-21T22:33:26.777Z,99736.36
2018-07-21T22:38:30.245Z,99734.55
2018-07-21T22:43:33.755Z,99741.92
2018-07-21T22:48:37.433Z,99740.29
2018-07-21T22:53:41.163Z,99742.92
2018-07-21T22:58:44.639Z,99737.44
2018-07-21T23:03:48.277Z,99744.45
2018-07-21T23:08:51.890Z,99751.50
2018-07-21T23:13:55.494Z,99757.69
2018-07-21T23:18:58.990Z,99743.38
2018-07-21T23:24:02.758Z,99737.84
2018-07-21T23:29:06.568Z,99745.81
2018-07-21T23:34:10.407Z,99740.95
2018-07-21T23:39:14.176Z,99734.85
2018-07-21T23:44:17.777Z,99735.69
2018-07-21T23:49:21.786Z,99751.92
2018-07-21T23:54:26.864Z,99744.19
2018-07-21T23:59:31.775Z,99739.23
